Airports

 

 

Airport Name Latest METAR Visual Conditions
Atlantic City Int. (ACY) KACY 271754Z 33011KT 10SM OVC038 04/M03 A3003 RMK AO2 SLP169 T00441033 10056 20028 58006 VFR
Baltimore International Airport (BWI) KBWI 271754Z 33010G20KT 10SM SCT036 BKN047 06/M03 A3006 RMK AO2 SLP180 T00561028 10072 20028 58013 VFR
Washington National Airport (DCA) KDCA 271752Z 32013KT 10SM BKN043 06/M02 A3010 RMK AO2 SLP190 T00611022 10072 20033 58012 VFR
Dulles International Airport (IAD) KIAD 271752Z 34008G22KT 10SM BKN037 05/M03 A3009 RMK AO2 SLP191 T00501033 10067 20033 58008 VFR
Norfolk International Airport (ORF) KORF 271751Z AUTO 02005KT 10SM CLR 08/02 A3006 RMK AO2 SLP178 T00780022 10078 20056 58013 VFR
Raleigh International Airport (RDU) KRDU 271751Z 00000KT 10SM FEW015 SCT110 SCT140 BKN160 BKN200 10/06 A3007 RMK AO2 SLP183 T01000061 10100 20061 51004 VFR
Richmond International Airport (RIC) KRIC 271754Z 33006KT 10SM BKN030 BKN048 BKN190 08/01 A3008 RMK AO2 SLP192 T00830011 10094 20044 55006 MVFR
Roanoke Regional Airport (ROA) KROA 271754Z VRB06KT 10SM SCT180 08/00 A3006 RMK AO2 SLP183 T00780000 10083 20061 58012 VFR